sensor_id;sensor_type;location;lat;lon;timestamp;P1;durP1;ratioP1;P2;durP2;ratioP2
9898;SDS011;4988;49.238;6.698;2023-04-08T00:00:12;9.23;;;6.00;;
9898;SDS011;4988;49.238;6.698;2023-04-08T00:02:37;11.53;;;6.97;;
9898;SDS011;4988;49.238;6.698;2023-04-08T00:05:03;10.30;;;6.53;;
9898;SDS011;4988;49.238;6.698;2023-04-08T00:07:28;13.17;;;8.63;;
9898;SDS011;4988;49.238;6.698;2023-04-08T00:09:54;16.10;;;7.93;;
9898;SDS011;4988;49.238;6.698;2023-04-08T00:12:20;15.80;;;8.13;;
9898;SDS011;4988;49.238;6.698;2023-04-08T00:14:46;12.07;;;7.70;;
9898;SDS011;4988;49.238;6.698;2023-04-08T00:17:11;14.43;;;6.77;;
9898;SDS011;4988;49.238;6.698;2023-04-08T00:19:36;13.80;;;8.07;;
9898;SDS011;4988;49.238;6.698;2023-04-08T00:22:02;14.07;;;7.13;;
9898;SDS011;4988;49.238;6.698;2023-04-08T00:24:27;13.60;;;7.80;;
9898;SDS011;4988;49.238;6.698;2023-04-08T00:26:52;11.50;;;6.83;;
9898;SDS011;4988;49.238;6.698;2023-04-08T00:29:18;11.17;;;6.83;;
9898;SDS011;4988;49.238;6.698;2023-04-08T00:31:43;12.60;;;7.50;;
9898;SDS011;4988;49.238;6.698;2023-04-08T00:34:08;11.80;;;7.10;;
9898;SDS011;4988;49.238;6.698;2023-04-08T00:36:34;17.23;;;7.73;;
9898;SDS011;4988;49.238;6.698;2023-04-08T00:39:00;15.17;;;8.47;;
9898;SDS011;4988;49.238;6.698;2023-04-08T00:41:25;16.50;;;8.87;;
9898;SDS011;4988;49.238;6.698;2023-04-08T00:43:51;13.63;;;8.10;;
9898;SDS011;4988;49.238;6.698;2023-04-08T00:46:16;15.83;;;8.87;;
9898;SDS011;4988;49.238;6.698;2023-04-08T00:48:42;17.57;;;9.60;;
9898;SDS011;4988;49.238;6.698;2023-04-08T00:51:08;15.50;;;9.60;;
9898;SDS011;4988;49.238;6.698;2023-04-08T00:53:33;17.33;;;9.07;;
9898;SDS011;4988;49.238;6.698;2023-04-08T00:55:58;14.60;;;8.27;;
9898;SDS011;4988;49.238;6.698;2023-04-08T00:58:25;15.57;;;8.57;;
9898;SDS011;4988;49.238;6.698;2023-04-08T01:00:59;14.60;;;8.83;;
9898;SDS011;4988;49.238;6.698;2023-04-08T01:03:33;15.20;;;9.10;;
9898;SDS011;4988;49.238;6.698;2023-04-08T01:08:36;17.00;;;9.73;;
9898;SDS011;4988;49.238;6.698;2023-04-08T01:11:05;16.23;;;9.13;;
9898;SDS011;4988;49.238;6.698;2023-04-08T01:13:37;15.67;;;8.93;;
9898;SDS011;4988;49.238;6.698;2023-04-08T01:16:05;16.10;;;8.00;;
9898;SDS011;4988;49.238;6.698;2023-04-08T01:18:34;14.57;;;8.63;;
9898;SDS011;4988;49.238;6.698;2023-04-08T01:21:01;15.37;;;8.27;;
9898;SDS011;4988;49.238;6.698;2023-04-08T01:23:32;15.17;;;8.50;;
9898;SDS011;4988;49.238;6.698;2023-04-08T01:26:07;15.67;;;8.60;;
9898;SDS011;4988;49.238;6.698;2023-04-08T01:28:36;14.97;;;9.17;;
9898;SDS011;4988;49.238;6.698;2023-04-08T01:31:03;15.73;;;9.23;;
9898;SDS011;4988;49.238;6.698;2023-04-08T01:33:29;13.87;;;8.53;;
9898;SDS011;4988;49.238;6.698;2023-04-08T01:35:55;15.63;;;8.30;;
9898;SDS011;4988;49.238;6.698;2023-04-08T01:38:23;11.10;;;7.97;;
9898;SDS011;4988;49.238;6.698;2023-04-08T01:40:50;15.23;;;9.40;;
9898;SDS011;4988;49.238;6.698;2023-04-08T01:43:17;14.70;;;8.63;;
9898;SDS011;4988;49.238;6.698;2023-04-08T01:45:44;13.00;;;8.30;;
9898;SDS011;4988;49.238;6.698;2023-04-08T01:48:14;14.57;;;8.23;;
9898;SDS011;4988;49.238;6.698;2023-04-08T01:50:40;13.67;;;9.03;;
9898;SDS011;4988;49.238;6.698;2023-04-08T01:53:07;17.70;;;9.90;;
9898;SDS011;4988;49.238;6.698;2023-04-08T01:55:35;16.73;;;10.37;;
9898;SDS011;4988;49.238;6.698;2023-04-08T01:58:02;18.23;;;9.47;;
9898;SDS011;4988;49.238;6.698;2023-04-08T02:00:31;18.00;;;9.83;;
9898;SDS011;4988;49.238;6.698;2023-04-08T02:02:58;18.77;;;9.60;;
9898;SDS011;4988;49.238;6.698;2023-04-08T02:05:26;18.43;;;10.40;;
9898;SDS011;4988;49.238;6.698;2023-04-08T02:07:52;16.87;;;9.07;;
9898;SDS011;4988;49.238;6.698;2023-04-08T02:10:17;14.73;;;8.93;;
9898;SDS011;4988;49.238;6.698;2023-04-08T02:12:43;13.87;;;8.37;;
9898;SDS011;4988;49.238;6.698;2023-04-08T02:15:10;16.27;;;8.50;;
9898;SDS011;4988;49.238;6.698;2023-04-08T02:17:44;14.13;;;8.33;;
9898;SDS011;4988;49.238;6.698;2023-04-08T02:25:29;14.37;;;8.97;;
9898;SDS011;4988;49.238;6.698;2023-04-08T02:27:56;15.37;;;8.43;;
9898;SDS011;4988;49.238;6.698;2023-04-08T02:30:24;12.43;;;8.30;;
9898;SDS011;4988;49.238;6.698;2023-04-08T02:32:52;15.13;;;9.13;;
9898;SDS011;4988;49.238;6.698;2023-04-08T02:35:18;14.87;;;8.77;;
9898;SDS011;4988;49.238;6.698;2023-04-08T02:37:45;16.63;;;8.50;;
9898;SDS011;4988;49.238;6.698;2023-04-08T02:43:06;16.87;;;8.50;;
9898;SDS011;4988;49.238;6.698;2023-04-08T02:45:34;16.53;;;8.70;;
9898;SDS011;4988;49.238;6.698;2023-04-08T02:48:05;14.10;;;7.90;;
9898;SDS011;4988;49.238;6.698;2023-04-08T02:50:31;12.23;;;8.00;;
9898;SDS011;4988;49.238;6.698;2023-04-08T02:52:56;14.10;;;8.53;;
9898;SDS011;4988;49.238;6.698;2023-04-08T02:55:22;12.23;;;7.83;;
9898;SDS011;4988;49.238;6.698;2023-04-08T02:57:47;13.73;;;7.40;;
9898;SDS011;4988;49.238;6.698;2023-04-08T03:00:13;14.83;;;7.13;;
9898;SDS011;4988;49.238;6.698;2023-04-08T03:02:38;14.17;;;7.77;;
9898;SDS011;4988;49.238;6.698;2023-04-08T03:05:04;16.23;;;7.73;;
9898;SDS011;4988;49.238;6.698;2023-04-08T03:07:30;12.00;;;7.40;;
9898;SDS011;4988;49.238;6.698;2023-04-08T03:09:56;13.23;;;7.27;;
9898;SDS011;4988;49.238;6.698;2023-04-08T03:12:21;11.53;;;7.67;;
9898;SDS011;4988;49.238;6.698;2023-04-08T03:14:47;11.67;;;7.70;;
9898;SDS011;4988;49.238;6.698;2023-04-08T03:17:13;15.37;;;7.50;;
9898;SDS011;4988;49.238;6.698;2023-04-08T03:19:38;11.97;;;7.27;;
9898;SDS011;4988;49.238;6.698;2023-04-08T03:22:03;12.00;;;7.30;;
9898;SDS011;4988;49.238;6.698;2023-04-08T03:24:29;12.33;;;7.30;;
9898;SDS011;4988;49.238;6.698;2023-04-08T03:26:54;14.37;;;7.33;;
9898;SDS011;4988;49.238;6.698;2023-04-08T03:29:20;12.97;;;7.57;;
9898;SDS011;4988;49.238;6.698;2023-04-08T03:31:45;13.90;;;8.63;;
9898;SDS011;4988;49.238;6.698;2023-04-08T03:34:10;15.77;;;8.93;;
9898;SDS011;4988;49.238;6.698;2023-04-08T03:36:36;15.60;;;9.33;;
9898;SDS011;4988;49.238;6.698;2023-04-08T03:39:01;16.07;;;8.93;;
9898;SDS011;4988;49.238;6.698;2023-04-08T03:41:27;15.77;;;9.67;;
9898;SDS011;4988;49.238;6.698;2023-04-08T03:43:53;15.40;;;9.13;;
9898;SDS011;4988;49.238;6.698;2023-04-08T03:46:18;19.23;;;9.63;;
9898;SDS011;4988;49.238;6.698;2023-04-08T03:48:44;16.07;;;8.83;;
9898;SDS011;4988;49.238;6.698;2023-04-08T03:51:09;13.67;;;8.57;;
9898;SDS011;4988;49.238;6.698;2023-04-08T03:53:35;17.93;;;9.40;;
9898;SDS011;4988;49.238;6.698;2023-04-08T03:56:00;18.53;;;9.63;;
9898;SDS011;4988;49.238;6.698;2023-04-08T03:58:27;14.73;;;8.60;;
9898;SDS011;4988;49.238;6.698;2023-04-08T04:00:53;14.07;;;8.90;;
9898;SDS011;4988;49.238;6.698;2023-04-08T04:03:18;17.77;;;9.33;;
9898;SDS011;4988;49.238;6.698;2023-04-08T04:05:43;15.33;;;9.37;;
9898;SDS011;4988;49.238;6.698;2023-04-08T04:08:09;13.67;;;9.07;;
9898;SDS011;4988;49.238;6.698;2023-04-08T04:10:34;16.43;;;9.57;;
9898;SDS011;4988;49.238;6.698;2023-04-08T04:13:00;16.40;;;9.00;;
9898;SDS011;4988;49.238;6.698;2023-04-08T04:15:25;15.70;;;8.83;;
9898;SDS011;4988;49.238;6.698;2023-04-08T04:17:51;14.20;;;8.73;;
9898;SDS011;4988;49.238;6.698;2023-04-08T04:20:16;16.60;;;8.83;;
9898;SDS011;4988;49.238;6.698;2023-04-08T04:22:42;15.00;;;9.40;;
9898;SDS011;4988;49.238;6.698;2023-04-08T04:25:07;19.03;;;9.97;;
9898;SDS011;4988;49.238;6.698;2023-04-08T04:27:33;15.20;;;9.03;;
9898;SDS011;4988;49.238;6.698;2023-04-08T04:30:00;15.60;;;9.37;;
9898;SDS011;4988;49.238;6.698;2023-04-08T04:32:26;19.07;;;9.70;;
9898;SDS011;4988;49.238;6.698;2023-04-08T04:34:51;16.80;;;9.30;;
9898;SDS011;4988;49.238;6.698;2023-04-08T04:37:17;17.60;;;10.10;;
9898;SDS011;4988;49.238;6.698;2023-04-08T04:39:42;18.77;;;9.07;;
9898;SDS011;4988;49.238;6.698;2023-04-08T04:42:07;16.80;;;9.63;;
9898;SDS011;4988;49.238;6.698;2023-04-08T04:44:33;17.53;;;9.83;;
9898;SDS011;4988;49.238;6.698;2023-04-08T04:46:58;19.30;;;9.73;;
9898;SDS011;4988;49.238;6.698;2023-04-08T04:49:23;21.83;;;10.70;;
9898;SDS011;4988;49.238;6.698;2023-04-08T04:51:49;19.73;;;10.80;;
9898;SDS011;4988;49.238;6.698;2023-04-08T04:54:14;20.07;;;10.70;;
9898;SDS011;4988;49.238;6.698;2023-04-08T04:56:40;19.50;;;10.30;;
9898;SDS011;4988;49.238;6.698;2023-04-08T04:59:05;19.03;;;10.97;;
9898;SDS011;4988;49.238;6.698;2023-04-08T05:01:32;17.80;;;9.90;;
9898;SDS011;4988;49.238;6.698;2023-04-08T05:03:58;16.73;;;10.10;;
9898;SDS011;4988;49.238;6.698;2023-04-08T05:06:23;17.73;;;10.00;;
9898;SDS011;4988;49.238;6.698;2023-04-08T05:08:48;22.77;;;11.10;;
9898;SDS011;4988;49.238;6.698;2023-04-08T05:11:15;19.10;;;10.40;;
9898;SDS011;4988;49.238;6.698;2023-04-08T05:13:42;22.17;;;10.93;;
9898;SDS011;4988;49.238;6.698;2023-04-08T05:16:07;22.30;;;10.93;;
9898;SDS011;4988;49.238;6.698;2023-04-08T05:18:33;17.27;;;10.40;;
9898;SDS011;4988;49.238;6.698;2023-04-08T05:20:58;20.13;;;10.57;;
9898;SDS011;4988;49.238;6.698;2023-04-08T05:23:23;19.50;;;11.10;;
9898;SDS011;4988;49.238;6.698;2023-04-08T05:25:49;18.57;;;10.73;;
9898;SDS011;4988;49.238;6.698;2023-04-08T05:28:14;21.10;;;11.57;;
9898;SDS011;4988;49.238;6.698;2023-04-08T05:30:40;20.87;;;11.10;;
9898;SDS011;4988;49.238;6.698;2023-04-08T05:33:05;19.83;;;10.87;;
9898;SDS011;4988;49.238;6.698;2023-04-08T05:35:31;23.50;;;12.00;;
9898;SDS011;4988;49.238;6.698;2023-04-08T05:37:56;25.67;;;12.17;;
9898;SDS011;4988;49.238;6.698;2023-04-08T05:40:22;24.23;;;12.63;;
9898;SDS011;4988;49.238;6.698;2023-04-08T05:42:47;23.80;;;11.43;;
9898;SDS011;4988;49.238;6.698;2023-04-08T05:45:12;23.23;;;12.40;;
9898;SDS011;4988;49.238;6.698;2023-04-08T05:47:38;27.90;;;11.93;;
9898;SDS011;4988;49.238;6.698;2023-04-08T05:50:03;23.50;;;11.73;;
9898;SDS011;4988;49.238;6.698;2023-04-08T05:52:29;25.40;;;13.17;;
9898;SDS011;4988;49.238;6.698;2023-04-08T05:54:54;25.07;;;12.07;;
9898;SDS011;4988;49.238;6.698;2023-04-08T05:57:19;30.70;;;12.37;;
9898;SDS011;4988;49.238;6.698;2023-04-08T05:59:45;25.90;;;11.93;;
9898;SDS011;4988;49.238;6.698;2023-04-08T06:02:10;28.07;;;12.63;;
9898;SDS011;4988;49.238;6.698;2023-04-08T06:04:35;27.60;;;12.60;;
9898;SDS011;4988;49.238;6.698;2023-04-08T06:07:01;28.20;;;13.67;;
9898;SDS011;4988;49.238;6.698;2023-04-08T06:09:27;26.80;;;12.80;;
9898;SDS011;4988;49.238;6.698;2023-04-08T06:11:53;27.60;;;12.43;;
9898;SDS011;4988;49.238;6.698;2023-04-08T06:14:18;28.27;;;11.73;;
9898;SDS011;4988;49.238;6.698;2023-04-08T06:16:44;24.43;;;11.47;;
9898;SDS011;4988;49.238;6.698;2023-04-08T06:19:10;32.93;;;12.60;;
9898;SDS011;4988;49.238;6.698;2023-04-08T06:21:35;28.87;;;12.93;;
9898;SDS011;4988;49.238;6.698;2023-04-08T06:24:01;28.30;;;12.43;;
9898;SDS011;4988;49.238;6.698;2023-04-08T06:26:26;31.67;;;13.53;;
9898;SDS011;4988;49.238;6.698;2023-04-08T06:28:51;28.77;;;12.53;;
9898;SDS011;4988;49.238;6.698;2023-04-08T06:31:17;28.57;;;13.40;;
9898;SDS011;4988;49.238;6.698;2023-04-08T06:33:42;26.67;;;12.37;;
9898;SDS011;4988;49.238;6.698;2023-04-08T06:36:08;29.87;;;12.13;;
9898;SDS011;4988;49.238;6.698;2023-04-08T06:38:33;26.43;;;12.73;;
9898;SDS011;4988;49.238;6.698;2023-04-08T06:41:02;27.97;;;13.57;;
9898;SDS011;4988;49.238;6.698;2023-04-08T06:43:28;36.63;;;13.37;;
9898;SDS011;4988;49.238;6.698;2023-04-08T06:45:54;32.77;;;13.07;;
9898;SDS011;4988;49.238;6.698;2023-04-08T06:48:20;32.27;;;13.20;;
9898;SDS011;4988;49.238;6.698;2023-04-08T06:50:47;27.80;;;12.97;;
9898;SDS011;4988;49.238;6.698;2023-04-08T06:53:12;27.73;;;11.70;;
9898;SDS011;4988;49.238;6.698;2023-04-08T06:55:38;30.90;;;13.97;;
9898;SDS011;4988;49.238;6.698;2023-04-08T06:58:03;32.10;;;13.60;;
9898;SDS011;4988;49.238;6.698;2023-04-08T07:00:28;27.57;;;11.93;;
9898;SDS011;4988;49.238;6.698;2023-04-08T07:02:54;33.63;;;14.07;;
9898;SDS011;4988;49.238;6.698;2023-04-08T07:05:19;28.70;;;12.77;;
9898;SDS011;4988;49.238;6.698;2023-04-08T07:07:45;29.00;;;13.23;;
9898;SDS011;4988;49.238;6.698;2023-04-08T07:10:11;28.33;;;14.03;;
9898;SDS011;4988;49.238;6.698;2023-04-08T07:12:37;31.70;;;13.33;;
9898;SDS011;4988;49.238;6.698;2023-04-08T07:15:02;33.00;;;12.90;;
9898;SDS011;4988;49.238;6.698;2023-04-08T07:17:28;28.33;;;13.00;;
9898;SDS011;4988;49.238;6.698;2023-04-08T07:19:53;30.67;;;13.60;;
9898;SDS011;4988;49.238;6.698;2023-04-08T07:22:18;30.47;;;13.73;;
9898;SDS011;4988;49.238;6.698;2023-04-08T07:24:44;31.03;;;12.53;;
9898;SDS011;4988;49.238;6.698;2023-04-08T07:27:13;33.30;;;14.00;;
9898;SDS011;4988;49.238;6.698;2023-04-08T07:29:40;29.30;;;12.47;;
9898;SDS011;4988;49.238;6.698;2023-04-08T07:32:05;33.17;;;12.70;;
9898;SDS011;4988;49.238;6.698;2023-04-08T07:34:33;29.40;;;13.30;;
9898;SDS011;4988;49.238;6.698;2023-04-08T07:36:59;32.90;;;14.07;;
9898;SDS011;4988;49.238;6.698;2023-04-08T07:39:25;29.07;;;12.47;;
9898;SDS011;4988;49.238;6.698;2023-04-08T07:41:50;31.77;;;13.53;;
9898;SDS011;4988;49.238;6.698;2023-04-08T07:44:16;31.53;;;13.00;;
9898;SDS011;4988;49.238;6.698;2023-04-08T07:46:41;32.23;;;13.50;;
9898;SDS011;4988;49.238;6.698;2023-04-08T07:49:06;28.57;;;14.23;;
9898;SDS011;4988;49.238;6.698;2023-04-08T07:51:33;36.37;;;13.60;;
9898;SDS011;4988;49.238;6.698;2023-04-08T07:53:59;35.93;;;13.20;;
9898;SDS011;4988;49.238;6.698;2023-04-08T07:56:25;33.33;;;13.83;;
9898;SDS011;4988;49.238;6.698;2023-04-08T07:58:51;30.20;;;13.57;;
9898;SDS011;4988;49.238;6.698;2023-04-08T08:01:19;32.70;;;13.57;;
9898;SDS011;4988;49.238;6.698;2023-04-08T08:03:46;34.20;;;14.77;;
9898;SDS011;4988;49.238;6.698;2023-04-08T08:06:12;33.10;;;14.63;;
9898;SDS011;4988;49.238;6.698;2023-04-08T08:08:38;29.37;;;13.63;;
9898;SDS011;4988;49.238;6.698;2023-04-08T08:11:03;31.77;;;13.80;;
9898;SDS011;4988;49.238;6.698;2023-04-08T08:13:29;29.17;;;13.43;;
9898;SDS011;4988;49.238;6.698;2023-04-08T08:15:55;31.50;;;13.73;;
9898;SDS011;4988;49.238;6.698;2023-04-08T08:18:21;35.77;;;13.50;;
9898;SDS011;4988;49.238;6.698;2023-04-08T08:20:46;30.43;;;12.93;;
9898;SDS011;4988;49.238;6.698;2023-04-08T08:23:11;32.27;;;13.77;;
9898;SDS011;4988;49.238;6.698;2023-04-08T08:25:37;31.50;;;13.97;;
9898;SDS011;4988;49.238;6.698;2023-04-08T08:28:02;28.07;;;13.33;;
9898;SDS011;4988;49.238;6.698;2023-04-08T08:30:28;27.00;;;12.50;;
9898;SDS011;4988;49.238;6.698;2023-04-08T08:32:53;31.67;;;13.13;;
9898;SDS011;4988;49.238;6.698;2023-04-08T08:35:18;36.93;;;14.23;;
9898;SDS011;4988;49.238;6.698;2023-04-08T08:37:44;28.93;;;13.10;;
9898;SDS011;4988;49.238;6.698;2023-04-08T08:40:09;27.43;;;13.10;;
9898;SDS011;4988;49.238;6.698;2023-04-08T08:42:35;26.37;;;12.87;;
9898;SDS011;4988;49.238;6.698;2023-04-08T08:45:01;28.77;;;13.67;;
9898;SDS011;4988;49.238;6.698;2023-04-08T08:47:27;32.10;;;14.07;;
9898;SDS011;4988;49.238;6.698;2023-04-08T08:49:53;28.07;;;12.57;;
9898;SDS011;4988;49.238;6.698;2023-04-08T08:52:18;31.80;;;13.10;;
9898;SDS011;4988;49.238;6.698;2023-04-08T08:54:44;30.53;;;13.53;;
9898;SDS011;4988;49.238;6.698;2023-04-08T08:57:19;31.77;;;13.10;;
9898;SDS011;4988;49.238;6.698;2023-04-08T08:59:45;30.17;;;13.90;;
9898;SDS011;4988;49.238;6.698;2023-04-08T09:02:28;31.33;;;12.63;;
9898;SDS011;4988;49.238;6.698;2023-04-08T09:04:56;23.83;;;11.80;;
9898;SDS011;4988;49.238;6.698;2023-04-08T09:07:29;28.87;;;12.93;;
9898;SDS011;4988;49.238;6.698;2023-04-08T09:10:08;26.33;;;12.93;;
9898;SDS011;4988;49.238;6.698;2023-04-08T09:12:55;33.50;;;13.23;;
9898;SDS011;4988;49.238;6.698;2023-04-08T09:15:33;29.10;;;13.20;;
9898;SDS011;4988;49.238;6.698;2023-04-08T09:18:34;25.37;;;12.57;;
9898;SDS011;4988;49.238;6.698;2023-04-08T09:21:21;29.93;;;13.20;;
9898;SDS011;4988;49.238;6.698;2023-04-08T09:23:57;23.10;;;11.87;;
9898;SDS011;4988;49.238;6.698;2023-04-08T09:26:25;24.17;;;12.50;;
9898;SDS011;4988;49.238;6.698;2023-04-08T09:29:06;28.63;;;13.63;;
9898;SDS011;4988;49.238;6.698;2023-04-08T09:31:33;26.17;;;12.30;;
9898;SDS011;4988;49.238;6.698;2023-04-08T09:34:08;24.77;;;12.97;;
9898;SDS011;4988;49.238;6.698;2023-04-08T09:36:37;27.60;;;13.20;;
9898;SDS011;4988;49.238;6.698;2023-04-08T09:39:02;26.73;;;13.33;;
9898;SDS011;4988;49.238;6.698;2023-04-08T09:41:28;28.17;;;14.23;;
9898;SDS011;4988;49.238;6.698;2023-04-08T09:43:58;25.97;;;12.63;;
9898;SDS011;4988;49.238;6.698;2023-04-08T09:49:11;25.47;;;12.93;;
9898;SDS011;4988;49.238;6.698;2023-04-08T09:51:49;22.90;;;12.20;;
9898;SDS011;4988;49.238;6.698;2023-04-08T09:54:24;23.17;;;11.80;;
9898;SDS011;4988;49.238;6.698;2023-04-08T09:57:14;25.27;;;11.80;;
9898;SDS011;4988;49.238;6.698;2023-04-08T09:59:48;25.67;;;11.57;;
9898;SDS011;4988;49.238;6.698;2023-04-08T10:02:24;25.20;;;12.30;;
9898;SDS011;4988;49.238;6.698;2023-04-08T10:04:55;25.00;;;12.23;;
9898;SDS011;4988;49.238;6.698;2023-04-08T10:07:24;24.93;;;11.67;;
9898;SDS011;4988;49.238;6.698;2023-04-08T10:09:49;23.73;;;12.47;;
9898;SDS011;4988;49.238;6.698;2023-04-08T10:12:15;24.67;;;12.43;;
9898;SDS011;4988;49.238;6.698;2023-04-08T10:14:41;26.43;;;12.53;;
9898;SDS011;4988;49.238;6.698;2023-04-08T10:17:25;26.57;;;13.10;;
9898;SDS011;4988;49.238;6.698;2023-04-08T10:19:52;25.40;;;12.43;;
9898;SDS011;4988;49.238;6.698;2023-04-08T10:27:39;26.03;;;12.60;;
9898;SDS011;4988;49.238;6.698;2023-04-08T10:32:56;25.43;;;12.23;;
9898;SDS011;4988;49.238;6.698;2023-04-08T10:35:36;26.40;;;12.00;;
9898;SDS011;4988;49.238;6.698;2023-04-08T10:38:12;26.30;;;12.10;;
9898;SDS011;4988;49.238;6.698;2023-04-08T10:40:39;26.73;;;13.23;;
9898;SDS011;4988;49.238;6.698;2023-04-08T10:43:06;23.20;;;11.90;;
9898;SDS011;4988;49.238;6.698;2023-04-08T10:45:33;20.83;;;11.33;;
9898;SDS011;4988;49.238;6.698;2023-04-08T10:48:18;21.47;;;11.23;;
9898;SDS011;4988;49.238;6.698;2023-04-08T10:50:56;26.03;;;11.53;;
9898;SDS011;4988;49.238;6.698;2023-04-08T10:53:33;24.20;;;11.77;;
9898;SDS011;4988;49.238;6.698;2023-04-08T10:56:04;21.30;;;12.13;;
9898;SDS011;4988;49.238;6.698;2023-04-08T10:58:48;21.03;;;11.40;;
9898;SDS011;4988;49.238;6.698;2023-04-08T11:01:14;22.77;;;11.23;;
9898;SDS011;4988;49.238;6.698;2023-04-08T11:03:40;19.80;;;11.07;;
9898;SDS011;4988;49.238;6.698;2023-04-08T11:06:06;23.70;;;12.07;;
9898;SDS011;4988;49.238;6.698;2023-04-08T11:08:32;25.63;;;11.80;;
9898;SDS011;4988;49.238;6.698;2023-04-08T11:10:58;24.20;;;12.60;;
9898;SDS011;4988;49.238;6.698;2023-04-08T11:13:28;21.97;;;11.17;;
9898;SDS011;4988;49.238;6.698;2023-04-08T11:15:54;20.67;;;11.03;;
9898;SDS011;4988;49.238;6.698;2023-04-08T11:18:21;26.07;;;11.20;;
9898;SDS011;4988;49.238;6.698;2023-04-08T11:20:49;21.60;;;10.87;;
9898;SDS011;4988;49.238;6.698;2023-04-08T11:23:15;24.33;;;10.60;;
9898;SDS011;4988;49.238;6.698;2023-04-08T11:25:42;18.80;;;10.97;;
9898;SDS011;4988;49.238;6.698;2023-04-08T11:28:08;19.23;;;11.00;;
9898;SDS011;4988;49.238;6.698;2023-04-08T11:30:35;21.27;;;11.00;;
9898;SDS011;4988;49.238;6.698;2023-04-08T11:33:01;23.07;;;12.20;;
9898;SDS011;4988;49.238;6.698;2023-04-08T11:35:29;17.03;;;10.20;;
9898;SDS011;4988;49.238;6.698;2023-04-08T11:37:55;22.43;;;12.37;;
9898;SDS011;4988;49.238;6.698;2023-04-08T11:40:22;19.70;;;10.17;;
9898;SDS011;4988;49.238;6.698;2023-04-08T11:42:48;19.97;;;10.80;;
9898;SDS011;4988;49.238;6.698;2023-04-08T11:45:15;17.33;;;10.73;;
9898;SDS011;4988;49.238;6.698;2023-04-08T11:47:42;22.20;;;11.17;;
9898;SDS011;4988;49.238;6.698;2023-04-08T11:50:08;18.17;;;9.63;;
9898;SDS011;4988;49.238;6.698;2023-04-08T11:52:43;20.87;;;10.27;;
9898;SDS011;4988;49.238;6.698;2023-04-08T11:55:11;18.87;;;10.40;;
9898;SDS011;4988;49.238;6.698;2023-04-08T11:57:45;19.17;;;9.40;;
9898;SDS011;4988;49.238;6.698;2023-04-08T12:00:10;19.80;;;10.43;;
9898;SDS011;4988;49.238;6.698;2023-04-08T12:02:36;19.10;;;9.80;;
9898;SDS011;4988;49.238;6.698;2023-04-08T12:05:01;15.40;;;9.30;;
9898;SDS011;4988;49.238;6.698;2023-04-08T12:07:27;17.93;;;9.50;;
9898;SDS011;4988;49.238;6.698;2023-04-08T12:09:53;20.63;;;10.10;;
9898;SDS011;4988;49.238;6.698;2023-04-08T12:12:18;20.63;;;10.60;;
9898;SDS011;4988;49.238;6.698;2023-04-08T12:14:44;20.77;;;10.77;;
9898;SDS011;4988;49.238;6.698;2023-04-08T12:17:09;19.83;;;9.90;;
9898;SDS011;4988;49.238;6.698;2023-04-08T12:19:35;22.03;;;9.50;;
9898;SDS011;4988;49.238;6.698;2023-04-08T12:22:00;19.07;;;9.37;;
9898;SDS011;4988;49.238;6.698;2023-04-08T12:24:26;17.87;;;10.20;;
9898;SDS011;4988;49.238;6.698;2023-04-08T12:26:51;18.20;;;10.10;;
9898;SDS011;4988;49.238;6.698;2023-04-08T12:29:16;20.27;;;10.53;;
9898;SDS011;4988;49.238;6.698;2023-04-08T12:31:42;17.80;;;10.00;;
9898;SDS011;4988;49.238;6.698;2023-04-08T12:34:07;17.30;;;10.00;;
9898;SDS011;4988;49.238;6.698;2023-04-08T12:36:32;15.97;;;9.73;;
9898;SDS011;4988;49.238;6.698;2023-04-08T12:38:58;16.60;;;10.03;;
9898;SDS011;4988;49.238;6.698;2023-04-08T12:41:23;17.70;;;9.53;;
9898;SDS011;4988;49.238;6.698;2023-04-08T12:43:48;17.50;;;10.27;;
9898;SDS011;4988;49.238;6.698;2023-04-08T12:46:14;17.50;;;9.03;;
9898;SDS011;4988;49.238;6.698;2023-04-08T12:48:40;21.43;;;9.73;;
9898;SDS011;4988;49.238;6.698;2023-04-08T12:51:05;21.80;;;9.80;;
9898;SDS011;4988;49.238;6.698;2023-04-08T12:53:31;17.63;;;10.10;;
9898;SDS011;4988;49.238;6.698;2023-04-08T12:55:56;19.17;;;10.20;;
9898;SDS011;4988;49.238;6.698;2023-04-08T12:58:22;17.57;;;9.80;;
9898;SDS011;4988;49.238;6.698;2023-04-08T13:00:49;18.47;;;10.10;;
9898;SDS011;4988;49.238;6.698;2023-04-08T13:03:15;19.90;;;9.90;;
9898;SDS011;4988;49.238;6.698;2023-04-08T13:05:41;18.23;;;9.27;;
9898;SDS011;4988;49.238;6.698;2023-04-08T13:08:08;20.00;;;10.40;;
9898;SDS011;4988;49.238;6.698;2023-04-08T13:10:33;18.20;;;10.27;;
9898;SDS011;4988;49.238;6.698;2023-04-08T13:12:59;18.70;;;10.63;;
9898;SDS011;4988;49.238;6.698;2023-04-08T13:15:24;18.43;;;9.80;;
9898;SDS011;4988;49.238;6.698;2023-04-08T13:17:50;18.93;;;10.70;;
9898;SDS011;4988;49.238;6.698;2023-04-08T13:20:15;23.03;;;10.43;;
9898;SDS011;4988;49.238;6.698;2023-04-08T13:22:41;19.17;;;10.77;;
9898;SDS011;4988;49.238;6.698;2023-04-08T13:25:06;17.57;;;9.97;;
9898;SDS011;4988;49.238;6.698;2023-04-08T13:27:32;17.93;;;9.80;;
9898;SDS011;4988;49.238;6.698;2023-04-08T13:29:57;20.83;;;10.07;;
9898;SDS011;4988;49.238;6.698;2023-04-08T13:32:22;19.80;;;10.07;;
9898;SDS011;4988;49.238;6.698;2023-04-08T13:34:48;15.13;;;9.50;;
9898;SDS011;4988;49.238;6.698;2023-04-08T13:37:13;17.83;;;9.57;;
9898;SDS011;4988;49.238;6.698;2023-04-08T13:39:38;16.03;;;9.93;;
9898;SDS011;4988;49.238;6.698;2023-04-08T13:42:04;20.53;;;9.93;;
9898;SDS011;4988;49.238;6.698;2023-04-08T13:44:29;19.27;;;9.87;;
9898;SDS011;4988;49.238;6.698;2023-04-08T13:46:54;15.70;;;9.63;;
9898;SDS011;4988;49.238;6.698;2023-04-08T13:49:20;18.23;;;10.03;;
9898;SDS011;4988;49.238;6.698;2023-04-08T13:51:45;16.27;;;10.40;;
9898;SDS011;4988;49.238;6.698;2023-04-08T13:54:11;18.40;;;10.30;;
9898;SDS011;4988;49.238;6.698;2023-04-08T13:56:36;16.80;;;9.83;;
9898;SDS011;4988;49.238;6.698;2023-04-08T13:59:01;18.27;;;10.37;;
9898;SDS011;4988;49.238;6.698;2023-04-08T14:01:27;16.83;;;9.80;;
9898;SDS011;4988;49.238;6.698;2023-04-08T14:03:53;16.90;;;9.87;;
9898;SDS011;4988;49.238;6.698;2023-04-08T14:06:18;16.60;;;9.53;;
9898;SDS011;4988;49.238;6.698;2023-04-08T14:08:43;15.27;;;9.80;;
9898;SDS011;4988;49.238;6.698;2023-04-08T14:11:09;17.23;;;10.17;;
9898;SDS011;4988;49.238;6.698;2023-04-08T14:13:34;16.27;;;10.43;;
9898;SDS011;4988;49.238;6.698;2023-04-08T14:15:59;17.50;;;9.73;;
9898;SDS011;4988;49.238;6.698;2023-04-08T14:18:26;19.33;;;10.37;;
9898;SDS011;4988;49.238;6.698;2023-04-08T14:20:52;19.00;;;10.40;;
9898;SDS011;4988;49.238;6.698;2023-04-08T14:23:17;17.27;;;9.40;;
9898;SDS011;4988;49.238;6.698;2023-04-08T14:25:43;15.07;;;9.77;;
9898;SDS011;4988;49.238;6.698;2023-04-08T14:28:08;15.83;;;9.77;;
9898;SDS011;4988;49.238;6.698;2023-04-08T14:30:34;18.97;;;9.83;;
9898;SDS011;4988;49.238;6.698;2023-04-08T14:33:00;17.50;;;10.20;;
9898;SDS011;4988;49.238;6.698;2023-04-08T14:35:25;15.87;;;9.40;;
9898;SDS011;4988;49.238;6.698;2023-04-08T14:37:50;14.47;;;9.23;;
9898;SDS011;4988;49.238;6.698;2023-04-08T14:40:16;36.37;;;10.53;;
9898;SDS011;4988;49.238;6.698;2023-04-08T14:42:41;18.97;;;10.53;;
9898;SDS011;4988;49.238;6.698;2023-04-08T14:45:08;17.20;;;9.40;;
9898;SDS011;4988;49.238;6.698;2023-04-08T14:47:34;16.07;;;9.77;;
9898;SDS011;4988;49.238;6.698;2023-04-08T14:49:59;16.27;;;9.80;;
9898;SDS011;4988;49.238;6.698;2023-04-08T14:52:25;16.40;;;9.60;;
9898;SDS011;4988;49.238;6.698;2023-04-08T14:54:50;16.50;;;9.77;;
9898;SDS011;4988;49.238;6.698;2023-04-08T14:57:16;15.93;;;10.03;;
9898;SDS011;4988;49.238;6.698;2023-04-08T14:59:41;17.10;;;10.43;;
9898;SDS011;4988;49.238;6.698;2023-04-08T15:02:07;17.00;;;10.07;;
9898;SDS011;4988;49.238;6.698;2023-04-08T15:04:33;20.33;;;10.37;;
9898;SDS011;4988;49.238;6.698;2023-04-08T15:06:58;17.97;;;11.00;;
9898;SDS011;4988;49.238;6.698;2023-04-08T15:09:23;18.67;;;10.73;;
9898;SDS011;4988;49.238;6.698;2023-04-08T15:11:49;18.23;;;11.23;;